Terminal Aerodrome Forecast
Issued by NWS

Home | Current Version | Previous Version | Text Only | Print | Product List | Glossary Off
Versions: 1 2 3 4 5 6 7 8 9 10 11 12 13 14 15

104
FTUS43 KUNR 211828 AAA
TAFGCC
TAF AMD
KGCC 211828Z 2118/2218 34015G25KT P6SM -TSRA BKN070CB
     FM212100 34018G28KT P6SM BKN070
     FM220200 26011KT P6SM BKN070
     FM220700 27012KT P6SM -SHRA OVC050=

USA.gov is the U.S. government's official web portal to all federal, state and local government web resources and services.